createdAt,value
2022-09-28T00:02:10.693Z,15.00
2022-09-28T00:04:39.423Z,15.00
2022-09-28T00:07:08.829Z,15.00
2022-09-28T00:09:38.536Z,15.00
2022-09-28T00:12:08.027Z,15.00
2022-09-28T00:14:37.804Z,15.00
2022-09-28T00:17:08.331Z,15.10
2022-09-28T00:19:39.889Z,15.10
2022-09-28T00:22:09.751Z,15.10
2022-09-28T00:24:39.182Z,15.10
2022-09-28T00:27:10.014Z,15.10
2022-09-28T00:29:40.114Z,15.20
2022-09-28T00:32:12.182Z,15.20
2022-09-28T00:34:46.337Z,15.20
2022-09-28T00:37:16.103Z,15.20
2022-09-28T00:39:45.598Z,15.20
2022-09-28T00:42:21.209Z,15.10
2022-09-28T00:44:59.523Z,15.10
2022-09-28T00:47:34.863Z,15.10
2022-09-28T00:50:19.956Z,15.10
2022-09-28T00:53:04.561Z,15.20
2022-09-28T00:55:43.160Z,15.20
2022-09-28T00:58:16.680Z,15.20
2022-09-28T01:00:46.210Z,15.20
2022-09-28T01:03:17.472Z,15.20
2022-09-28T01:05:50.141Z,15.20
2022-09-28T01:08:23.966Z,15.20
2022-09-28T01:10:53.536Z,15.10
2022-09-28T01:13:25.579Z,15.10
2022-09-28T01:16:01.094Z,15.10
2022-09-28T01:18:39.571Z,15.10
2022-09-28T01:21:24.192Z,15.10
2022-09-28T01:24:16.734Z,15.10
2022-09-28T01:26:52.327Z,15.10
2022-09-28T01:29:41.539Z,15.00
2022-09-28T01:32:30.832Z,15.10
2022-09-28T01:35:16.223Z,15.00
2022-09-28T01:37:57.785Z,15.00
2022-09-28T01:40:29.841Z,15.00
2022-09-28T01:43:08.633Z,15.00
2022-09-28T01:45:47.001Z,15.10
2022-09-28T01:48:22.125Z,15.10
2022-09-28T01:50:55.114Z,15.10
2022-09-28T01:53:25.342Z,15.00
2022-09-28T01:55:58.972Z,15.00
2022-09-28T01:58:39.782Z,15.00
2022-09-28T02:01:21.519Z,15.00
2022-09-28T02:03:54.110Z,15.00
2022-09-28T02:06:29.305Z,14.90
2022-09-28T02:09:01.794Z,14.90
2022-09-28T02:11:35.437Z,14.90
2022-09-28T02:14:07.998Z,14.90
2022-09-28T02:16:43.277Z,14.90
2022-09-28T02:19:13.681Z,15.00
2022-09-28T02:22:01.013Z,15.00
2022-09-28T02:25:54.104Z,15.00
2022-09-28T02:28:23.623Z,15.00
2022-09-28T02:32:17.371Z,15.00
2022-09-28T02:34:47.082Z,15.00
2022-09-28T02:37:16.847Z,15.00
2022-09-28T02:39:46.280Z,15.00
2022-09-28T02:42:27.373Z,15.00
2022-09-28T02:45:22.838Z,15.00
2022-09-28T02:48:42.766Z,15.00
2022-09-28T02:51:12.913Z,15.00
2022-09-28T02:54:01.427Z,15.00
2022-09-28T02:56:49.013Z,15.00
2022-09-28T02:59:48.414Z,15.00
2022-09-28T03:02:42.015Z,15.00
2022-09-28T03:05:23.678Z,15.00
2022-09-28T03:08:02.453Z,15.10
2022-09-28T03:10:46.799Z,15.10
2022-09-28T03:13:17.652Z,15.10
2022-09-28T03:15:48.961Z,15.10
2022-09-28T03:18:19.259Z,15.10
2022-09-28T03:20:49.510Z,15.00
2022-09-28T03:23:26.159Z,15.10
2022-09-28T03:25:50.080Z,15.10
2022-09-28T03:28:21.345Z,15.10
2022-09-28T03:30:51.487Z,15.10
2022-09-28T03:33:21.401Z,15.10
2022-09-28T03:35:52.080Z,15.20
2022-09-28T03:38:22.020Z,15.20
2022-09-28T03:40:59.626Z,15.20
2022-09-28T03:43:32.665Z,15.20
2022-09-28T03:46:04.263Z,15.20
2022-09-28T03:48:37.149Z,15.20
2022-09-28T03:51:09.517Z,15.30
2022-09-28T03:53:41.623Z,15.20
2022-09-28T03:56:16.119Z,15.20
2022-09-28T03:58:45.549Z,15.20
2022-09-28T04:01:17.656Z,15.30
2022-09-28T04:03:48.662Z,15.30
2022-09-28T04:06:18.512Z,15.30
2022-09-28T04:08:47.953Z,15.30
2022-09-28T04:11:17.607Z,15.30
2022-09-28T04:13:50.044Z,15.30
2022-09-28T04:16:19.904Z,15.30
2022-09-28T04:18:51.285Z,15.30
2022-09-28T04:21:28.591Z,15.40
2022-09-28T04:23:59.756Z,15.40
2022-09-28T04:26:29.431Z,15.40
2022-09-28T04:29:17.513Z,15.40
2022-09-28T04:31:57.854Z,15.40
2022-09-28T04:34:33.152Z,15.40
2022-09-28T04:37:00.069Z,15.40
2022-09-28T04:39:29.644Z,15.40
2022-09-28T04:41:59.909Z,15.40
2022-09-28T04:44:30.279Z,15.40
2022-09-28T04:47:04.992Z,15.30
2022-09-28T04:49:35.844Z,15.30
2022-09-28T04:52:07.726Z,15.30
2022-09-28T04:54:37.448Z,15.30
2022-09-28T04:57:08.257Z,15.30
2022-09-28T04:59:40.091Z,15.20
2022-09-28T05:02:09.568Z,15.20
2022-09-28T05:04:41.027Z,15.20
2022-09-28T05:07:21.412Z,15.10
2022-09-28T05:09:51.076Z,15.10
2022-09-28T05:12:21.107Z,15.10
2022-09-28T05:14:51.885Z,15.00
2022-09-28T05:17:21.387Z,15.10
2022-09-28T05:20:09.055Z,15.00
2022-09-28T05:22:38.487Z,15.00
2022-09-28T05:25:10.259Z,15.00
2022-09-28T05:27:51.996Z,15.00
2022-09-28T05:30:23.590Z,15.00
2022-09-28T05:33:00.749Z,15.00
2022-09-28T05:35:32.523Z,15.00
2022-09-28T05:38:05.873Z,15.00
2022-09-28T05:40:35.474Z,15.10
2022-09-28T05:43:04.974Z,15.10
2022-09-28T05:45:35.059Z,15.10
2022-09-28T05:48:05.833Z,15.10
2022-09-28T05:50:35.445Z,15.20
2022-09-28T05:53:08.444Z,15.10
2022-09-28T05:55:40.156Z,15.20
2022-09-28T05:58:09.755Z,15.10
2022-09-28T06:00:39.264Z,15.20
2022-09-28T06:03:14.394Z,15.20
2022-09-28T06:05:44.239Z,15.20
2022-09-28T06:08:13.835Z,15.10
2022-09-28T06:10:45.132Z,15.20
2022-09-28T06:13:15.489Z,15.20
2022-09-28T06:15:46.382Z,15.20
2022-09-28T06:18:16.352Z,15.30
2022-09-28T06:20:49.178Z,15.30
2022-09-28T06:23:19.960Z,15.40
2022-09-28T06:25:49.456Z,15.50
2022-09-28T06:28:19.017Z,15.50
2022-09-28T06:30:48.526Z,15.50
2022-09-28T06:33:20.196Z,15.50
2022-09-28T06:35:49.720Z,15.50
2022-09-28T06:38:19.597Z,15.50
2022-09-28T06:40:50.503Z,15.60
2022-09-28T06:43:21.283Z,15.60
2022-09-28T06:46:10.760Z,15.60
2022-09-28T06:48:54.820Z,15.50
2022-09-28T06:51:42.184Z,15.60
2022-09-28T06:54:13.388Z,15.60
2022-09-28T06:56:44.553Z,15.70
2022-09-28T06:59:14.118Z,15.80
2022-09-28T07:01:43.791Z,15.90
2022-09-28T07:04:20.989Z,15.90
2022-09-28T07:07:11.079Z,15.90
2022-09-28T07:09:51.323Z,15.80
2022-09-28T07:12:24.835Z,15.80
2022-09-28T07:14:57.822Z,15.80
2022-09-28T07:17:28.202Z,15.80
2022-09-28T07:20:07.960Z,15.80
2022-09-28T07:22:42.124Z,15.80
2022-09-28T07:25:03.652Z,15.80
2022-09-28T07:27:41.099Z,15.80
2022-09-28T07:30:32.270Z,15.90
2022-09-28T07:33:06.303Z,16.00
2022-09-28T07:35:56.529Z,16.30
2022-09-28T07:38:27.655Z,16.30
2022-09-28T07:41:14.591Z,16.20
2022-09-28T07:43:50.070Z,16.20
2022-09-28T07:46:20.989Z,16.20
2022-09-28T07:48:52.914Z,16.20
2022-09-28T07:51:25.040Z,16.20
2022-09-28T07:54:12.602Z,16.30
2022-09-28T07:56:43.801Z,16.90
2022-09-28T07:59:25.389Z,17.00
2022-09-28T08:02:14.414Z,17.70
2022-09-28T08:04:44.476Z,18.20
2022-09-28T08:07:17.791Z,18.50
2022-09-28T08:09:48.986Z,18.60
2022-09-28T08:12:32.105Z,18.70
2022-09-28T08:15:11.296Z,19.00
2022-09-28T08:17:52.010Z,19.50
2022-09-28T08:20:46.952Z,18.80
2022-09-28T08:23:12.235Z,18.30
2022-09-28T08:25:50.499Z,17.90
2022-09-28T08:28:22.686Z,17.70
2022-09-28T08:30:54.523Z,17.60
2022-09-28T08:33:42.783Z,17.80
2022-09-28T08:36:30.114Z,17.90
2022-09-28T08:39:07.489Z,18.00
2022-09-28T08:41:46.953Z,18.20
2022-09-28T08:44:29.307Z,18.10
2022-09-28T08:47:14.016Z,17.90
2022-09-28T08:49:48.605Z,18.00
2022-09-28T08:52:41.287Z,18.80
2022-09-28T08:55:24.562Z,19.00
2022-09-28T08:58:09.183Z,19.40
2022-09-28T09:00:44.772Z,19.40
2022-09-28T09:03:17.291Z,18.90
2022-09-28T09:06:18.628Z,20.00
2022-09-28T09:09:20.963Z,19.20
2022-09-28T09:12:24.012Z,19.10
2022-09-28T09:15:10.228Z,18.60
2022-09-28T09:17:45.839Z,18.30
2022-09-28T09:20:50.034Z,18.20
2022-09-28T09:23:35.811Z,18.00
2022-09-28T09:26:26.246Z,17.90
2022-09-28T09:29:14.252Z,17.80
2022-09-28T09:32:09.604Z,17.90
2022-09-28T09:34:54.154Z,18.00
2022-09-28T09:37:43.029Z,18.00
2022-09-28T09:40:29.151Z,18.20
2022-09-28T09:43:28.021Z,18.30
2022-09-28T09:46:26.232Z,18.50
2022-09-28T09:48:58.344Z,18.50
2022-09-28T09:51:57.997Z,18.50
2022-09-28T09:54:36.073Z,18.80
2022-09-28T09:57:22.351Z,19.10
2022-09-28T10:00:04.429Z,19.20
2022-09-28T10:02:56.836Z,18.90
2022-09-28T10:05:31.016Z,18.50
2022-09-28T10:08:18.799Z,17.90
2022-09-28T10:10:54.369Z,17.80
2022-09-28T10:13:24.151Z,17.50
2022-09-28T10:15:56.339Z,17.50
2022-09-28T10:18:30.968Z,17.40
2022-09-28T10:21:20.027Z,17.30
2022-09-28T10:23:58.162Z,17.40
2022-09-28T10:26:35.045Z,17.30
2022-09-28T10:29:08.288Z,17.30
2022-09-28T10:31:40.819Z,17.40
2022-09-28T10:34:18.790Z,17.40
2022-09-28T10:36:59.276Z,17.30
2022-09-28T10:39:51.284Z,17.30
2022-09-28T10:42:23.783Z,17.40
2022-09-28T10:44:59.159Z,17.60
2022-09-28T10:47:35.672Z,17.60
2022-09-28T10:50:10.105Z,17.50
2022-09-28T10:52:42.874Z,17.60
2022-09-28T10:55:26.858Z,17.60
2022-09-28T10:57:56.444Z,17.50
2022-09-28T11:00:35.071Z,17.50
2022-09-28T11:03:26.605Z,17.50
2022-09-28T11:06:03.072Z,17.50
2022-09-28T11:08:41.478Z,17.30
2022-09-28T11:11:15.256Z,17.20
2022-09-28T11:13:51.543Z,17.20
2022-09-28T11:16:26.381Z,17.30
2022-09-28T11:18:58.094Z,17.30
2022-09-28T11:21:33.132Z,17.70
2022-09-28T11:24:07.531Z,18.00
2022-09-28T11:26:41.663Z,18.50
2022-09-28T11:29:26.734Z,18.40
2022-09-28T11:32:04.472Z,18.20
2022-09-28T11:34:58.760Z,18.30
2022-09-28T11:37:31.501Z,18.40
2022-09-28T11:40:02.054Z,18.50
2022-09-28T11:42:40.230Z,18.30
2022-09-28T11:45:43.406Z,18.10
2022-09-28T11:48:16.127Z,18.10
2022-09-28T11:50:49.593Z,18.10
2022-09-28T11:53:30.368Z,18.10
2022-09-28T11:56:13.185Z,18.10
2022-09-28T11:58:45.868Z,18.00
2022-09-28T12:01:19.264Z,18.00
2022-09-28T12:04:05.425Z,17.90
2022-09-28T12:06:41.467Z,17.80
2022-09-28T12:09:26.980Z,18.00
2022-09-28T12:12:01.893Z,18.00
2022-09-28T12:14:49.571Z,17.90
2022-09-28T12:17:37.287Z,17.90
2022-09-28T12:20:22.469Z,17.80
2022-09-28T12:23:06.788Z,17.80
2022-09-28T12:25:42.147Z,17.50
2022-09-28T12:28:19.932Z,17.50
2022-09-28T12:30:51.084Z,17.40
2022-09-28T12:33:20.585Z,17.30
2022-09-28T12:36:01.658Z,17.30
2022-09-28T12:39:14.850Z,17.50
2022-09-28T12:41:34.155Z,17.40
2022-09-28T12:44:39.407Z,17.50
2022-09-28T12:47:18.138Z,17.60
2022-09-28T12:50:37.065Z,17.70
2022-09-28T12:52:36.064Z,17.60
2022-09-28T12:55:26.391Z,17.70
2022-09-28T12:58:01.364Z,17.70
2022-09-28T13:00:40.051Z,18.00
2022-09-28T13:03:21.190Z,18.00
2022-09-28T13:06:17.504Z,18.10
2022-09-28T13:09:00.938Z,18.30
2022-09-28T13:11:51.586Z,19.20
2022-09-28T13:14:35.772Z,19.80
2022-09-28T13:17:23.407Z,20.20
2022-09-28T13:19:53.663Z,19.50
2022-09-28T13:22:28.631Z,19.40
2022-09-28T13:25:01.169Z,19.00
2022-09-28T13:27:37.080Z,18.80
2022-09-28T13:30:09.130Z,18.60
2022-09-28T13:32:39.064Z,18.40
2022-09-28T13:35:10.314Z,18.40
2022-09-28T13:37:40.417Z,18.50
2022-09-28T13:40:11.835Z,18.50
2022-09-28T13:42:53.008Z,18.50
2022-09-28T13:45:25.514Z,18.50
2022-09-28T13:48:14.326Z,18.50
2022-09-28T13:50:58.423Z,18.40
2022-09-28T13:53:45.556Z,18.40
2022-09-28T13:56:24.524Z,18.30
2022-09-28T13:59:21.201Z,18.60
2022-09-28T14:01:57.459Z,18.70
2022-09-28T14:04:48.076Z,18.70
2022-09-28T14:07:29.232Z,18.70
2022-09-28T14:10:23.654Z,18.50
2022-09-28T14:12:55.117Z,18.50
2022-09-28T14:15:39.507Z,18.20
2022-09-28T14:18:30.611Z,17.90
2022-09-28T14:21:16.256Z,17.70
2022-09-28T14:23:59.918Z,17.90
2022-09-28T14:26:43.740Z,18.10
2022-09-28T14:29:28.645Z,18.30
2022-09-28T14:32:11.991Z,18.30
2022-09-28T14:34:47.108Z,18.20
2022-09-28T14:37:56.062Z,18.20
2022-09-28T14:40:53.027Z,18.30
2022-09-28T14:43:28.457Z,18.50
2022-09-28T14:46:14.743Z,18.70
2022-09-28T14:48:48.236Z,18.80
2022-09-28T14:51:33.614Z,19.10
2022-09-28T14:54:10.336Z,18.90
2022-09-28T14:56:56.568Z,18.70
2022-09-28T14:59:37.244Z,18.50
2022-09-28T15:02:21.860Z,18.20
2022-09-28T15:04:54.750Z,17.70
2022-09-28T15:07:24.987Z,17.30
2022-09-28T15:09:57.151Z,17.40
2022-09-28T15:12:27.656Z,17.40
2022-09-28T15:15:01.347Z,17.30
2022-09-28T15:17:40.358Z,17.30
2022-09-28T15:20:25.225Z,17.30
2022-09-28T15:22:57.425Z,17.00
2022-09-28T15:25:32.732Z,17.00
2022-09-28T15:28:06.684Z,17.10
2022-09-28T15:30:38.347Z,17.00
2022-09-28T15:33:34.951Z,17.00
2022-09-28T15:36:07.226Z,17.10
2022-09-28T15:38:37.123Z,17.00
2022-09-28T15:41:10.529Z,17.00
2022-09-28T15:43:41.591Z,16.80
2022-09-28T15:46:16.252Z,16.70
2022-09-28T15:48:51.291Z,16.60
2022-09-28T15:51:25.326Z,16.50
2022-09-28T15:54:11.241Z,16.40
2022-09-28T15:56:59.800Z,16.20
2022-09-28T15:59:34.895Z,16.10
2022-09-28T16:02:18.795Z,16.10
2022-09-28T16:04:54.911Z,15.90
2022-09-28T16:07:27.677Z,16.00
2022-09-28T16:10:15.709Z,16.00
2022-09-28T16:12:54.233Z,16.00
2022-09-28T16:15:29.314Z,16.10
2022-09-28T16:18:04.147Z,16.00
2022-09-28T16:20:36.370Z,16.00
2022-09-28T16:23:20.844Z,16.10
2022-09-28T16:25:53.864Z,16.10
2022-09-28T16:28:33.641Z,16.10
2022-09-28T16:31:19.701Z,16.10
2022-09-28T16:33:59.156Z,16.20
2022-09-28T16:36:32.040Z,16.20
2022-09-28T16:39:01.517Z,16.30
2022-09-28T16:41:32.143Z,16.20
2022-09-28T16:44:03.340Z,16.30
2022-09-28T16:46:38.887Z,16.30
2022-09-28T16:49:09.288Z,16.20
2022-09-28T16:51:40.214Z,16.30
2022-09-28T16:54:38.972Z,16.30
2022-09-28T16:57:11.261Z,16.20
2022-09-28T16:59:40.823Z,16.20
2022-09-28T17:02:42.331Z,16.20
2022-09-28T17:04:50.225Z,16.20
2022-09-28T17:07:20.905Z,16.20
2022-09-28T17:09:50.429Z,16.20
2022-09-28T17:12:25.193Z,16.10
2022-09-28T17:14:54.628Z,16.10
2022-09-28T17:17:25.770Z,16.00
2022-09-28T17:19:55.256Z,16.10
2022-09-28T17:22:24.688Z,16.10
2022-09-28T17:24:54.118Z,16.00
2022-09-28T17:27:23.716Z,16.00
2022-09-28T17:29:53.151Z,16.00
2022-09-28T17:32:22.583Z,16.00
2022-09-28T17:35:06.479Z,16.00
2022-09-28T17:37:24.702Z,16.00
2022-09-28T17:39:55.882Z,16.00
2022-09-28T17:42:25.304Z,15.80
2022-09-28T17:44:54.736Z,15.90
2022-09-28T17:47:24.191Z,15.80
2022-09-28T17:49:53.791Z,15.70
2022-09-28T17:52:23.219Z,15.70
2022-09-28T17:54:52.831Z,15.70
2022-09-28T17:57:22.254Z,15.70
2022-09-28T17:59:51.692Z,15.70
2022-09-28T18:02:21.171Z,15.70
2022-09-28T18:04:52.564Z,15.70
2022-09-28T18:07:21.798Z,15.70
2022-09-28T18:09:55.900Z,15.70
2022-09-28T18:12:25.390Z,15.70
2022-09-28T18:14:54.905Z,15.70
2022-09-28T18:17:24.357Z,15.70
2022-09-28T18:19:54.159Z,15.70
2022-09-28T18:22:23.733Z,15.60
2022-09-28T18:24:53.210Z,15.60
2022-09-28T18:27:23.129Z,15.60
2022-09-28T18:29:52.497Z,15.50
2022-09-28T18:32:21.939Z,15.50
2022-09-28T18:34:51.374Z,15.40
2022-09-28T18:37:20.812Z,15.40
2022-09-28T18:39:50.367Z,15.30
2022-09-28T18:42:21.050Z,15.30
2022-09-28T18:44:50.843Z,15.30
2022-09-28T18:47:20.289Z,15.20
2022-09-28T18:49:51.401Z,15.30
2022-09-28T18:52:20.899Z,15.30
2022-09-28T18:54:50.691Z,15.20
2022-09-28T18:57:20.513Z,15.20
2022-09-28T18:59:50.008Z,15.20
2022-09-28T19:02:19.657Z,15.20
2022-09-28T19:04:50.651Z,15.20
2022-09-28T19:07:26.152Z,15.20
2022-09-28T19:09:55.934Z,15.20
2022-09-28T19:12:25.368Z,15.20
2022-09-28T19:14:54.810Z,15.20
2022-09-28T19:17:25.900Z,15.20
2022-09-28T19:19:55.328Z,15.20
2022-09-28T19:22:24.856Z,15.20
2022-09-28T19:24:54.418Z,15.20
2022-09-28T19:27:26.647Z,15.20
2022-09-28T19:29:56.164Z,15.20
2022-09-28T19:32:25.631Z,15.20
2022-09-28T19:34:55.122Z,15.10
2022-09-28T19:37:24.765Z,15.20
2022-09-28T19:39:54.206Z,15.10
2022-09-28T19:42:25.682Z,15.10
2022-09-28T19:44:55.102Z,15.10
2022-09-28T19:47:24.601Z,15.10
2022-09-28T19:49:54.099Z,15.00
2022-09-28T19:52:23.533Z,15.00
2022-09-28T19:55:01.318Z,15.00
2022-09-28T19:57:33.157Z,15.00
2022-09-28T20:00:04.915Z,14.90
2022-09-28T20:02:40.707Z,14.90
2022-09-28T20:05:10.206Z,14.90
2022-09-28T20:07:40.302Z,14.90
2022-09-28T20:10:11.976Z,14.90
2022-09-28T20:12:42.368Z,14.90
2022-09-28T20:15:11.978Z,14.90
2022-09-28T20:17:42.483Z,15.00
2022-09-28T20:20:11.912Z,15.00
2022-09-28T20:22:42.979Z,15.00
2022-09-28T20:25:12.450Z,14.90
2022-09-28T20:27:42.044Z,14.90
2022-09-28T20:30:12.812Z,14.90
2022-09-28T20:32:46.078Z,14.80
2022-09-28T20:35:19.191Z,14.80
2022-09-28T20:37:45.216Z,14.80
2022-09-28T20:40:14.677Z,14.70
2022-09-28T20:42:45.764Z,14.70
2022-09-28T20:45:15.338Z,14.80
2022-09-28T20:47:44.937Z,14.80
2022-09-28T20:50:14.458Z,14.80
2022-09-28T20:52:43.892Z,14.90
2022-09-28T20:55:13.340Z,14.80
2022-09-28T20:57:42.842Z,14.80
2022-09-28T21:00:13.898Z,14.80
2022-09-28T21:02:43.366Z,14.80
2022-09-28T21:05:12.858Z,14.80
2022-09-28T21:07:42.309Z,14.80
2022-09-28T21:10:11.808Z,14.70
2022-09-28T21:12:41.994Z,14.80
2022-09-28T21:15:11.878Z,14.70
2022-09-28T21:17:41.316Z,14.70
2022-09-28T21:20:10.974Z,14.70
2022-09-28T21:22:40.406Z,14.70
2022-09-28T21:25:10.546Z,14.70
2022-09-28T21:27:40.036Z,14.80
2022-09-28T21:30:10.623Z,14.70
2022-09-28T21:32:40.169Z,14.80
2022-09-28T21:35:10.014Z,14.80
2022-09-28T21:37:39.451Z,14.80
2022-09-28T21:40:10.615Z,14.80
2022-09-28T21:42:40.072Z,14.70
2022-09-28T21:45:10.211Z,14.70
2022-09-28T21:47:41.316Z,14.70
2022-09-28T21:50:10.859Z,14.70
2022-09-28T21:52:40.970Z,14.70
2022-09-28T21:55:11.555Z,14.70
2022-09-28T21:57:40.972Z,14.60
2022-09-28T22:00:14.158Z,14.60
2022-09-28T22:02:45.036Z,14.60
2022-09-28T22:05:14.973Z,14.60
2022-09-28T22:07:44.552Z,14.50
2022-09-28T22:10:15.508Z,14.50
2022-09-28T22:12:44.937Z,14.60
2022-09-28T22:15:14.375Z,14.50
2022-09-28T22:17:44.701Z,14.50
2022-09-28T22:20:14.121Z,14.40
2022-09-28T22:22:43.560Z,14.40
2022-09-28T22:25:13.079Z,14.40
2022-09-28T22:27:42.580Z,14.30
2022-09-28T22:30:12.486Z,14.40
2022-09-28T22:32:41.987Z,14.40
2022-09-28T22:35:12.249Z,14.30
2022-09-28T22:37:41.661Z,14.30
2022-09-28T22:40:12.842Z,14.40
2022-09-28T22:42:43.426Z,14.30
2022-09-28T22:45:12.282Z,14.40
2022-09-28T22:47:41.746Z,14.30
2022-09-28T22:50:11.400Z,14.40
2022-09-28T22:52:40.868Z,14.40
2022-09-28T22:55:10.587Z,14.40
2022-09-28T22:57:40.039Z,14.40
2022-09-28T23:00:10.558Z,14.30
2022-09-28T23:02:40.052Z,14.40
2022-09-28T23:05:09.615Z,14.30
2022-09-28T23:07:39.668Z,14.30
2022-09-28T23:10:09.447Z,14.30
2022-09-28T23:12:39.069Z,14.30
2022-09-28T23:15:10.234Z,14.30
2022-09-28T23:17:39.716Z,14.30
2022-09-28T23:20:09.607Z,14.30
2022-09-28T23:22:39.683Z,14.20
2022-09-28T23:25:09.496Z,14.30
2022-09-28T23:27:40.662Z,14.30
2022-09-28T23:30:11.081Z,14.30
2022-09-28T23:32:40.570Z,14.30
2022-09-28T23:35:11.046Z,14.30
2022-09-28T23:37:40.555Z,14.30
2022-09-28T23:40:10.311Z,14.30
2022-09-28T23:42:39.740Z,14.30
2022-09-28T23:45:09.139Z,14.30
2022-09-28T23:47:39.014Z,14.30
2022-09-28T23:50:09.054Z,14.30
2022-09-28T23:52:38.466Z,14.30
2022-09-28T23:55:08.350Z,14.30
2022-09-28T23:57:40.758Z,14.30
